To NAV CANADA Home Page Login to a new session Search on AWWS site Feedback and Comments Disclaimer Vers la page française équivalente Tips FAQ What's new on the site To the Forecasts and Observations / NOTAM section To "File a Flight Plan" website Publications and other links Update of the User's profile FIC Telephone Numbers My Weather Data Folder Route Weather Data Regional Weather Data Local Weather Data To the Forecasts and Observations / NOTAM section
Request Generated 09/25/2016 at 08:48:28 UTC . Weather information available at that time is displayed.

METAR/TAF

MONTREAL/ST-HUBERT/QC    (show WxCam)

METAR CYHU 250800Z AUTO 31007KT 9SM CLR 08/03 A3016 RMK SLP216=
METAR CYHU 250700Z AUTO 31008KT 9SM CLR 08/03 A3017 RMK SLP218=
METAR CYHU 250600Z AUTO 31008KT 9SM CLR 09/03 A3017 RMK SLP219=

TAF CYHU 250538Z 2506/2606 32008KT P6SM SKC
FM251600 31010G20KT P6SM FEW050
BECMG 2521/2522 34008KT
BECMG 2601/2603 03005KT
RMK FCST BASED ON AUTO OBS. NXT FCST BY 251200Z=
Your time UTC time
Weather data provided by Environment Canada and NAV CANADA